Warning: Javascript must be enabled to use all the features on this page!


Page Loading - Please Wait...

Click to hideNews Bulletins

Peak Streamflow for the Nation

USGS 14148000 MF WILLAMETTE RIVER BLW N FORK, NR OAKRIDGE, OR.

Lane County, Oregon
Hydrologic Unit Code 17090001
Latitude  43°48'05", Longitude 122°33'35" NAD27
Drainage area 924  square miles
Gage datum 934.76 feet above NGVD29
Output formats
Table
Graph
Tab-separated file
peakfq (watstore) format
Reselect output format
Water
Year
Date Gage
Height
(feet)
Stream-
flow
(cfs)
1890 1890-02 17.005,Bd 55,0002,7,Bd
1912 1912-01-12 9.203 34,8007
1924 1923-12-07 8.603 11,400
1925 1924-12-30 12.003 27,000
1926 1926-02-06 10.503 19,600
1927 1927-02-21 17.003 55,100
1928 1928-03-11 12.503 29,600
1929 1929-03-21 10.903 21,400
1930 1929-12-19 12.003 26,300
1931 1931-04-01 12.203 28,000
1932 1932-03-19 14.703 41,800
1933 1933-06-09 10.603 20,600
1934 1934-01-23 10.203 18,200
1935 1934-12-20 12.103,6 27,500
1936 1936-01-06 10.453 19,200
1937 1937-04-14 12.503 29,600
1938 1938-01-22 11.303 23,500
1939 1939-02-15 7.803 10,300
1940 1940-02-28 7.343 9,350
1941 1940-11-29 6.223 7,330
1942 1941-11-15 13.193 33,200
1943 1942-12-31 16.953 53,400
1944 1943-11-04 10.103 17,900
1945 1945-02-13 10.363 21,300
1946 1945-12-28 18.803 81,800
1947 1946-12-14 12.543 32,000
1948 1948-01-06 13.043 38,000
1949 1948-12-12 12.903 37,000
1950 1950-03-17 8.753,6 15,800
1951 1950-10-29 11.72 59,900
1952 1952-02-02 6.86 17,400
1953 1953-01-18 12.16 59,400
1954 1953-11-23 12.23 60,100
1955 1954-12-31 6.02 12,500
1956 1955-12-22 13.36 72,900
1957 1956-12-11 12.16 59,400
1958 1958-02-16 9.44 35,500
1959 1959-01-27 6.78 17,900
1960 1960-02-08 6.14 14,900
1961 1961-02-10 8.69 29,8006
1962 1961-11-22 6.74 17,7006
1963 1962-12-02 5.76 13,2006
1964 1963-11-08 5.64 12,6006
1965 1964-12-22 11.75 55,8006
1966 1966-01-06 5.65 12,7006
1967 1967-01-28 5.42 11,3006
1968 1968-02-23 5.87 13,1006
1969 1968-11-09 7.24 19,9006
1970 1970-01-23 6.47 16,0006
1971 1971-01-18 9.82 36,7006
1972 1972-03-02 8.43 27,0006
1973 1972-12-24 4.45 7,0806
1974 1974-01-15 6.94 18,4006
1975 1975-01-24 6.09 14,1006
1976 1976-01-08 8.03 25,0006
1977 1977-05-18 3.07 3,0506
1978 1977-11-26 7.68 22,5006
1979 1978-12-04 7.17 19,5006
1980 1980-01-13 7.45 21,1006
1981 1980-12-25 6.00 12,2006
1982 1981-12-06 9.73 35,9006
1983 1983-02-18 6.19 13,1006
1984 1983-12-15 9.04 30,8006
1985 1984-11-13 6.32 13,6006
1986 1986-02-23 9.52 34,3006
1987 1986-11-28 6.00 12,0006
1988 1987-12-10 5.94 11,5006
1989 1989-01-10 7.67 21,6006
1990 1990-04-28 8.51 27,1006
1991 1991-01-15 6.23 13,2006
1992 1991-12-06 6.88 16,8006
1993 1993-03-18 6.98 17,4006
1994 1994-01-03 4.50 5,7806
1995 1995-01-14 6.96 17,3006
1996 1996-02-09 8.11 24,5006
1997 1996-11-19 10.34 40,8006
1998 1998-01-17 6.17 12,9006
1999 1998-12-28 8.04 24,1006
2000 2000-01-11 6.48 14,7006
2001 2001-05-16 4.74 7,1206
2002 2002-04-14 6.80 16,4006
2003 2003-01-30 6.51 14,8006
2004 2003-12-13 7.35 19,6006
2005 2004-12-09 6.74 16,1006
2006 2005-12-30 8.93 30,0006
2007 2007-01-03 6.58 15,6006
2008 2008-05-18 5.89 12,2006
2009 2008-12-29 6.83 16,9006
2010 2010-06-04 6.70 16,2006
2011 2011-01-16 9.93 37,5006
2012 2012-01-25 7.09 18,3006
2013 2012-12-05 7.80 22,5006
2014 2014-02-14 7.78 22,4006
2015 2014-12-22 9.65 35,4006
2016 2015-12-17 7.11 18,4006
2017 2017-03-19 5.62 11,0006
2018 2017-11-24 5.41 10,1006
2019 2019-04-08 10.18 34,7006
2020 2020-01-30 5.91 11,2006
?
  Peak Gage-Height Qualification Codes.
?
  Peak Streamflow Qualification Codes.